METAR AND TAF INFORMATION
METAR FOR KBDL
KBDL 211551Z 02010G15KT 10SM FEW040 FEW100 FEW200 33/21 A3016 RMK AO2 SLP212 T03330211
KBDL 211451Z VRB04KT 10SM FEW035 FEW200 32/23 A3017 RMK AO2 SLP215 T03170228 58005
KBDL 211351Z 01006KT 10SM FEW250 30/23 A3017 RMK AO2 SLP216 T03000228
KBDL 211729Z 2118/2224 29003KT P6SM VCSH BKN050
TEMPO 2119/2123 3SM TSRA BKN025CB
FM220000 12004KT P6SM OVC015
FM220400 17003KT 3SM BR BKN008
FM221100 18003KT P6SM BKN010
FM221500 19005KT P6SM SCT025 BKN040
FM221800 20005KT P6SM BKN050

 AIRPORT MAP

 RUNWAY INFORMATION
Runway 01 Runway length 5145 ft Runway width 100 ft
Runway elevation 171 ft Runway displaced threshold 0 ft Runway heading 359
Runway 19 Runway length 5145 ft Runway width 100 ft
Runway elevation 169 ft Runway displaced threshold 0 ft Runway heading 179
Runway 06 Runway length 9510 ft Runway width 200 ft
Runway elevation 173 ft Runway displaced threshold 0 ft Runway heading 44
Runway 24 Runway length 9510 ft Runway width 200 ft
Runway elevation 161 ft Runway displaced threshold 0 ft Runway heading 224
Runway 15 Runway length 6847 ft Runway width 150 ft
Runway elevation 169 ft Runway displaced threshold 0 ft Runway heading 135
Runway 33 Runway length 6847 ft Runway width 150 ft
Runway elevation 168 ft Runway displaced threshold 0 ft Runway heading 315

 AIRPORT FREQUENCIES
Type APP Name APP Frequency 123.95 MHZ
Type APP Name APP Frequency 32.58 MHZ
Type ATIS Name ATIS Frequency 118.15 MHZ
Type CLD Name CLNC DEL Frequency 121.75 MHZ
Type DEP Name DEP Frequency 123.95 MHZ
Type DEP Name DEP Frequency 35.9 MHZ
Type GND Name GND Frequency 121.9 MHZ
Type MISC Name ARNG OPS Frequency 41.9 MHZ
Type OPS Name ANG OPS Frequency 138.55 MHZ
Type RDO Name BRIDGEPORT Frequency 122.3 MHZ
Type TWR Name TWR Frequency 120.3 MHZ
Type UNIC Name UNICOM Frequency 122.95 MHZ

 AIRPORT NEAR NAVIGATION AIDS
Type NDB Name Chupp Frequency 388 KHZ
Type VORTAC Name Bradley Frequency 109000 KHZ

-